CheckWX is a tool to help pilots better visualize weather data.  It is not intended as a substitute for an official pre-flight weather briefing.

03:04:54 UTC

KGOO METAR
Nevada County Airport
Grass Valley, California, USA
Current

25 mins ago

KGOO 240240Z AUTO 11005KT 10SM FEW021 FEW027 04/03 A3016 RMK AO1
Observed
Mar-24 @ 02:40 UTC
Wind
  • 110° at 5 KTS
Visibility
10 SM
Flight Rules
VFR
Cloud Levels
  • Few at 2,100' AGL
  • Few at 2,700' AGL
Temperature
C / 39°F
Dewpoint
C / 37°F
Humidity
93%
Altimeter
30.16" Hg
Pressure
1021.32 hPa
Previous

45 mins ago

KGOO 240220Z AUTO 12004KT 5SM FEW001 SCT017 BKN023 04/03 A3017 RMK AO1
Observed
Mar-24 @ 02:20 UTC
Wind
  • 120° at 4 KTS
Visibility
5 SM
Flight Rules
MVFR
Cloud Levels
  • Few at 100' AGL
  • Scattered at 1,700' AGL
  • Broken at 2,300' AGL
Temperature
C / 39°F
Dewpoint
C / 37°F
Humidity
93%
Altimeter
30.17" Hg
Pressure
1021.72 hPa
Previous

1 hour ago

KGOO 240200Z AUTO 12004KT 10SM BKN018 OVC025 04/03 A3017 RMK AO1 P0011
Observed
Mar-24 @ 02:00 UTC
Wind
  • 120° at 4 KTS
Visibility
10 SM
Flight Rules
MVFR
Cloud Levels
  • Broken at 1,800' AGL
  • Overcast at 2,500' AGL
Temperature
C / 39°F
Dewpoint
C / 37°F
Humidity
93%
Altimeter
30.17" Hg
Pressure
1021.72 hPa
Current Rain
0.11"